Terminal Aerodrome Forecast
Issued by NWS Tuscon, AZ

Home | Current Version | Previous Version | Text Only | Print | Product List | Glossary On
Versions: 1 2 3 4 5 6 7 8 9 10 11 12 13 14
000
FTUS45 KTWC 260520
TAFDUG
TAF
KDUG 260520Z 2606/2706 22011G18KT P6SM SCT050 BKN100
     FM261000 17014KT P6SM SCT050 BKN100
     FM261500 22018G28KT P6SM FEW050 BKN100
     FM261800 29025G36KT P6SM SCT120=

USA.gov is the U.S. government's official web portal to all federal, state and local government web resources and services.